createdAt,value
2022-09-20T00:00:30.012Z,100828.92
2022-09-20T00:01:31.877Z,100831.54
2022-09-20T00:02:33.725Z,100828.06
2022-09-20T00:03:35.520Z,100822.84
2022-09-20T00:04:37.374Z,100828.06
2022-09-20T00:05:39.214Z,100822.84
2022-09-20T00:06:41.169Z,100810.63
2022-09-20T00:07:43.008Z,100808.02
2022-09-20T00:08:44.805Z,100802.78
2022-09-20T00:09:46.597Z,100809.77
2022-09-20T00:10:48.492Z,100805.40
2022-09-20T00:11:50.322Z,100808.02
2022-09-20T00:12:52.118Z,100809.77
2022-09-20T00:13:53.848Z,100808.87
2022-09-20T00:14:55.623Z,100807.14
2022-09-20T00:15:57.420Z,100806.25
2022-09-20T00:16:59.451Z,100808.88
2022-09-20T00:18:01.274Z,100807.15
2022-09-20T00:19:03.069Z,100797.55
2022-09-20T00:20:05.076Z,100800.16
2022-09-20T00:21:06.887Z,100791.46
2022-09-20T00:22:08.750Z,100796.69
2022-09-20T00:23:10.808Z,100789.70
2022-09-20T00:24:12.588Z,100792.32
2022-09-20T00:25:14.396Z,100794.08
2022-09-20T00:26:16.697Z,100795.80
2022-09-20T00:27:18.543Z,100789.70
2022-09-20T00:28:20.354Z,100792.32
2022-09-20T00:29:22.147Z,100787.95
2022-09-20T00:30:24.045Z,100791.46
2022-09-20T00:31:25.884Z,100790.56
2022-09-20T00:32:27.715Z,100794.93
2022-09-20T00:33:29.515Z,100795.82
2022-09-20T00:34:31.319Z,100795.80
2022-09-20T00:35:33.121Z,100796.69
2022-09-20T00:36:35.030Z,100800.16
2022-09-20T00:37:36.879Z,100806.25
2022-09-20T00:38:38.902Z,100805.39
2022-09-20T00:39:40.716Z,100805.39
2022-09-20T00:40:42.955Z,100803.64
2022-09-20T00:41:44.710Z,100805.39
2022-09-20T00:42:46.565Z,100794.08
2022-09-20T00:43:48.360Z,100796.69
2022-09-20T00:44:50.169Z,100797.55
2022-09-20T00:45:52.004Z,100789.71
2022-09-20T00:46:53.882Z,100787.95
2022-09-20T00:47:55.766Z,100792.33
2022-09-20T00:48:57.588Z,100789.71
2022-09-20T00:49:59.391Z,100789.72
2022-09-20T00:51:01.304Z,100783.63
2022-09-20T00:52:03.118Z,100787.97
2022-09-20T00:53:04.954Z,100791.47
2022-09-20T00:54:06.785Z,100791.47
2022-09-20T00:55:08.603Z,100794.08
2022-09-20T00:56:11.120Z,100794.94
2022-09-20T00:57:12.939Z,100788.84
2022-09-20T00:58:14.797Z,100794.07
2022-09-20T00:59:16.594Z,100792.31
2022-09-20T01:00:18.901Z,100783.62
2022-09-20T01:01:20.753Z,100793.19
2022-09-20T01:02:22.677Z,100789.71
2022-09-20T01:03:24.555Z,100782.73
2022-09-20T01:04:26.355Z,100788.85
2022-09-20T01:05:28.150Z,100785.34
2022-09-20T01:06:30.562Z,100794.94
2022-09-20T01:07:32.368Z,100788.85
2022-09-20T01:08:34.221Z,100792.33
2022-09-20T01:09:36.041Z,100786.23
2022-09-20T01:10:38.046Z,100793.19
2022-09-20T01:11:39.844Z,100780.12
2022-09-20T01:12:41.645Z,100787.10
2022-09-20T01:13:43.499Z,100781.87
2022-09-20T01:14:45.306Z,100775.78
2022-09-20T01:15:47.102Z,100767.94
2022-09-20T01:16:49.121Z,100769.66
2022-09-20T01:17:50.920Z,100774.02
2022-09-20T01:18:52.773Z,100774.88
2022-09-20T01:19:54.568Z,100776.63
2022-09-20T01:20:56.497Z,100774.02
2022-09-20T01:21:58.275Z,100769.64
2022-09-20T01:23:00.089Z,100777.48
2022-09-20T01:24:01.928Z,100760.08
2022-09-20T01:25:03.806Z,100767.92
2022-09-20T01:26:06.357Z,100767.03
2022-09-20T01:27:08.155Z,100774.88
2022-09-20T01:28:09.974Z,100775.77
2022-09-20T01:29:11.829Z,100780.10
2022-09-20T01:30:15.431Z,100785.33
2022-09-20T01:31:17.276Z,100780.11
2022-09-20T01:32:19.025Z,100781.00
2022-09-20T01:33:20.818Z,100779.25
2022-09-20T01:34:22.675Z,100778.39
2022-09-20T01:35:24.501Z,100768.80
2022-09-20T01:36:28.103Z,100772.27
2022-09-20T01:37:29.890Z,100773.17
2022-09-20T01:38:31.694Z,100773.17
2022-09-20T01:39:33.541Z,100771.41
2022-09-20T01:40:35.544Z,100772.28
2022-09-20T01:41:37.400Z,100771.42
2022-09-20T01:42:39.194Z,100763.58
2022-09-20T01:43:40.994Z,100762.72
2022-09-20T01:44:42.844Z,100759.20
2022-09-20T01:45:44.762Z,100752.27
2022-09-20T01:46:46.643Z,100754.88
2022-09-20T01:47:48.447Z,100753.13
2022-09-20T01:48:50.247Z,100751.38
2022-09-20T01:49:52.091Z,100747.91
2022-09-20T01:50:54.184Z,100747.91
2022-09-20T01:51:56.002Z,100748.77
2022-09-20T01:52:57.800Z,100753.15
2022-09-20T01:53:59.673Z,100749.64
2022-09-20T01:55:01.508Z,100754.87
2022-09-20T01:56:03.434Z,100763.60
2022-09-20T01:57:05.232Z,100760.09
2022-09-20T01:58:07.028Z,100752.25
2022-09-20T01:59:23.321Z,100750.53
2022-09-20T02:00:12.902Z,100747.03
2022-09-20T02:01:14.748Z,100751.39
2022-09-20T02:02:16.585Z,100747.92
2022-09-20T02:03:18.433Z,100747.92
2022-09-20T02:04:20.353Z,100750.53
2022-09-20T02:05:22.193Z,100757.48
2022-09-20T02:06:24.299Z,100751.39
2022-09-20T02:07:26.108Z,100756.62
2022-09-20T02:08:27.901Z,100754.86
2022-09-20T02:09:29.709Z,100752.25
2022-09-20T02:10:31.666Z,100748.78
2022-09-20T02:11:33.557Z,100740.95
2022-09-20T02:12:35.356Z,100736.58
2022-09-20T02:13:37.154Z,100741.81
2022-09-20T02:14:38.960Z,100743.56
2022-09-20T02:15:40.818Z,100741.81
2022-09-20T02:16:42.818Z,100742.67
2022-09-20T02:17:44.634Z,100744.42
2022-09-20T02:18:46.439Z,100733.11
2022-09-20T02:19:48.267Z,100734.83
2022-09-20T02:20:50.414Z,100733.97
2022-09-20T02:21:52.215Z,100730.50
2022-09-20T02:22:54.060Z,100728.75
2022-09-20T02:23:55.887Z,100740.95
2022-09-20T02:24:57.637Z,100735.73
2022-09-20T02:25:59.475Z,100733.97
2022-09-20T02:27:01.670Z,100739.20
2022-09-20T02:28:03.466Z,100738.34
2022-09-20T02:29:05.329Z,100736.58
2022-09-20T02:30:07.482Z,100729.61
2022-09-20T02:31:09.315Z,100740.05
2022-09-20T02:32:11.011Z,100739.20
2022-09-20T02:33:12.817Z,100735.69
2022-09-20T02:34:14.509Z,100740.05
2022-09-20T02:35:16.308Z,100739.19
2022-09-20T02:36:18.255Z,100738.30
2022-09-20T02:37:20.036Z,100741.80
2022-09-20T02:38:21.730Z,100733.07
2022-09-20T02:39:23.521Z,100736.57
2022-09-20T02:40:25.451Z,100739.17
2022-09-20T02:41:27.361Z,100732.20
2022-09-20T02:42:29.338Z,100739.09
2022-09-20T02:43:31.040Z,100744.31
2022-09-20T02:44:32.843Z,100733.02
2022-09-20T02:45:34.697Z,100740.84
2022-09-20T02:46:36.674Z,100740.84
2022-09-20T02:47:38.483Z,100739.98
2022-09-20T02:48:40.286Z,100738.22
2022-09-20T02:49:42.081Z,100733.00
2022-09-20T02:50:43.970Z,100739.08
2022-09-20T02:51:45.806Z,100738.22
2022-09-20T02:52:47.609Z,100745.20
2022-09-20T02:53:49.409Z,100744.31
2022-09-20T02:54:51.193Z,100745.20
2022-09-20T02:55:52.999Z,100752.15
2022-09-20T02:56:55.153Z,100750.44
2022-09-20T02:57:57.044Z,100747.83
2022-09-20T02:58:58.831Z,100746.97
2022-09-20T03:00:00.536Z,100743.50
2022-09-20T03:01:02.388Z,100751.34
2022-09-20T03:02:04.188Z,100744.36
2022-09-20T03:03:05.975Z,100733.02
2022-09-20T03:04:07.789Z,100738.23
2022-09-20T03:05:09.573Z,100743.45
2022-09-20T03:06:11.376Z,100746.06
2022-09-20T03:07:13.230Z,100746.07
2022-09-20T03:08:15.011Z,100742.60
2022-09-20T03:09:16.703Z,100752.15
2022-09-20T03:10:20.305Z,100746.07
2022-09-20T03:11:22.114Z,100743.46
2022-09-20T03:12:23.943Z,100743.46
2022-09-20T03:13:25.963Z,100748.68
2022-09-20T03:14:27.751Z,100747.82
2022-09-20T03:15:29.548Z,100746.92
2022-09-20T03:16:32.304Z,100748.68
2022-09-20T03:17:34.122Z,100745.21
2022-09-20T03:18:35.937Z,100754.77
2022-09-20T03:19:37.724Z,100751.30
2022-09-20T03:20:39.719Z,100753.05
2022-09-20T03:21:41.826Z,100753.91
2022-09-20T03:22:43.671Z,100757.41
2022-09-20T03:23:45.369Z,100757.41
2022-09-20T03:24:47.172Z,100752.16
2022-09-20T03:25:48.894Z,100759.13
2022-09-20T03:26:50.702Z,100750.42
2022-09-20T03:27:52.554Z,100764.34
2022-09-20T03:28:54.418Z,100766.95
2022-09-20T03:29:56.217Z,100780.02
2022-09-20T03:30:58.314Z,100772.19
2022-09-20T03:32:00.284Z,100766.14
2022-09-20T03:33:02.219Z,100770.52
2022-09-20T03:34:04.012Z,100779.20
2022-09-20T03:35:05.811Z,100774.84
2022-09-20T03:36:07.911Z,100773.13
2022-09-20T03:37:10.027Z,100776.61
2022-09-20T03:38:11.850Z,100776.61
2022-09-20T03:39:13.677Z,100769.64
2022-09-20T03:40:16.127Z,100753.11
2022-09-20T03:41:17.990Z,100755.72
2022-09-20T03:42:19.797Z,100763.55
2022-09-20T03:43:21.621Z,100759.19
2022-09-20T03:44:23.627Z,100755.72
2022-09-20T03:45:25.424Z,100751.36
2022-09-20T03:46:27.533Z,100760.08
2022-09-20T03:47:29.325Z,100763.55
2022-09-20T03:48:31.167Z,100762.69
2022-09-20T03:49:32.972Z,100762.69
2022-09-20T03:50:34.856Z,100761.80
2022-09-20T03:51:36.558Z,100752.23
2022-09-20T03:52:38.252Z,100753.95
2022-09-20T03:53:40.302Z,100747.02
2022-09-20T03:54:42.094Z,100750.48
2022-09-20T03:55:43.782Z,100752.23
2022-09-20T03:56:45.685Z,100760.06
2022-09-20T03:57:47.485Z,100767.00
2022-09-20T03:58:49.332Z,100756.56
2022-09-20T03:59:51.203Z,100759.17
2022-09-20T04:00:53.065Z,100768.77
2022-09-20T04:01:54.824Z,100783.57
2022-09-20T04:02:56.602Z,100784.43
2022-09-20T04:03:58.472Z,100782.68
2022-09-20T04:05:00.266Z,100763.55
2022-09-20T04:06:02.063Z,100763.55
2022-09-20T04:07:03.856Z,100779.22
2022-09-20T04:08:05.559Z,100762.69
2022-09-20T04:09:07.401Z,100760.94
2022-09-20T04:10:09.493Z,100759.17
2022-09-20T04:11:11.295Z,100758.31
2022-09-20T04:12:13.088Z,100761.77
2022-09-20T04:13:14.990Z,100751.30
2022-09-20T04:14:16.829Z,100751.29
2022-09-20T04:15:18.845Z,100747.81
2022-09-20T04:16:21.064Z,100751.28
2022-09-20T04:17:22.844Z,100751.27
2022-09-20T04:18:24.640Z,100747.80
2022-09-20T04:19:30.814Z,100746.91
2022-09-20T04:20:30.500Z,100749.50
2022-09-20T04:21:32.299Z,100752.11
2022-09-20T04:22:34.097Z,100748.64
2022-09-20T04:23:35.889Z,100748.64
2022-09-20T04:24:37.724Z,100755.62
2022-09-20T04:25:43.604Z,100753.02
2022-09-20T04:26:43.227Z,100753.88
2022-09-20T04:27:45.560Z,100751.27
2022-09-20T04:28:47.290Z,100754.73
2022-09-20T04:29:49.142Z,100752.13
2022-09-20T04:30:51.350Z,100748.66
2022-09-20T04:31:54.252Z,100737.35
2022-09-20T04:32:56.379Z,100746.91
2022-09-20T04:33:58.169Z,100750.41
2022-09-20T04:35:00.614Z,100759.96
2022-09-20T04:36:02.483Z,100760.86
2022-09-20T04:37:04.495Z,100757.36
2022-09-20T04:38:06.309Z,100750.42
2022-09-20T04:39:08.104Z,100755.64
2022-09-20T04:40:11.117Z,100755.64
2022-09-20T04:41:13.198Z,100759.97
2022-09-20T04:42:15.618Z,100755.65
2022-09-20T04:43:17.659Z,100746.92
2022-09-20T04:44:19.460Z,100742.60
2022-09-20T04:45:22.112Z,100753.91
2022-09-20T04:46:24.258Z,100746.08
2022-09-20T04:47:26.068Z,100759.17
2022-09-20T04:48:27.863Z,100762.64
2022-09-20T04:49:29.691Z,100758.31
2022-09-20T04:50:31.638Z,100763.53
2022-09-20T04:51:33.451Z,100768.77
2022-09-20T04:52:35.238Z,100772.23
2022-09-20T04:53:37.062Z,100770.52
2022-09-20T04:54:38.889Z,100770.52
2022-09-20T04:55:40.724Z,100766.16
2022-09-20T04:56:42.840Z,100769.63
2022-09-20T04:57:44.652Z,100769.63
2022-09-20T04:58:46.468Z,100766.16
2022-09-20T04:59:48.269Z,100762.69
2022-09-20T05:00:50.245Z,100770.52
2022-09-20T05:01:52.197Z,100778.36
2022-09-20T05:02:54.050Z,100778.36
2022-09-20T05:03:55.849Z,100780.97
2022-09-20T05:04:57.658Z,100773.14
2022-09-20T05:05:59.513Z,100751.36
2022-09-20T05:07:01.425Z,100741.80
2022-09-20T05:08:03.639Z,100731.36
2022-09-20T05:09:06.443Z,100733.97
2022-09-20T05:10:09.045Z,100730.46
2022-09-20T05:11:10.902Z,100732.21
2022-09-20T05:12:12.709Z,100725.23
2022-09-20T05:13:14.643Z,100741.79
2022-09-20T05:14:16.451Z,100742.64
2022-09-20T05:15:18.253Z,100743.50
2022-09-20T05:16:20.655Z,100742.64
2022-09-20T05:17:22.599Z,100740.89
2022-09-20T05:18:24.944Z,100746.11
2022-09-20T05:19:26.808Z,100749.58
2022-09-20T05:20:29.586Z,100747.87
2022-09-20T05:21:31.502Z,100747.01
2022-09-20T05:22:33.399Z,100732.20
2022-09-20T05:23:35.700Z,100728.73
2022-09-20T05:24:37.703Z,100730.45
2022-09-20T05:25:39.550Z,100729.59
2022-09-20T05:26:41.918Z,100720.91
2022-09-20T05:27:43.931Z,100713.93
2022-09-20T05:28:45.731Z,100706.95
2022-09-20T05:29:47.676Z,100706.95
2022-09-20T05:30:49.731Z,100700.02
2022-09-20T05:31:51.654Z,100695.65
2022-09-20T05:32:53.980Z,100699.98
2022-09-20T05:33:55.978Z,100706.91
2022-09-20T05:34:57.814Z,100699.94
2022-09-20T05:35:59.742Z,100701.69
2022-09-20T05:37:01.611Z,100702.55
2022-09-20T05:38:03.399Z,100701.69
2022-09-20T05:39:05.310Z,100698.22
2022-09-20T05:40:07.569Z,100702.55
2022-09-20T05:41:09.350Z,100708.66
2022-09-20T05:42:11.326Z,100702.55
2022-09-20T05:43:13.123Z,100699.93
2022-09-20T05:44:15.313Z,100697.32
2022-09-20T05:45:17.185Z,100694.70
2022-09-20T05:46:19.297Z,100687.77
2022-09-20T05:47:21.322Z,100699.92
2022-09-20T05:48:23.164Z,100696.46
2022-09-20T05:49:24.969Z,100692.98
2022-09-20T05:50:27.975Z,100690.38
2022-09-20T05:51:29.960Z,100691.24
2022-09-20T05:52:31.909Z,100684.27
2022-09-20T05:53:33.705Z,100686.02
2022-09-20T05:54:35.507Z,100682.55
2022-09-20T05:55:37.323Z,100688.63
2022-09-20T05:56:39.227Z,100682.55
2022-09-20T05:57:41.076Z,100683.41
2022-09-20T05:58:42.882Z,100689.48
2022-09-20T05:59:45.073Z,100688.63
2022-09-20T06:00:47.285Z,100700.81
2022-09-20T06:01:49.146Z,100695.59
2022-09-20T06:02:51.535Z,100699.92
2022-09-20T06:03:54.418Z,100698.20
2022-09-20T06:04:56.983Z,100697.30
2022-09-20T06:05:59.031Z,100697.30
2022-09-20T06:07:01.152Z,100707.74
2022-09-20T06:08:03.004Z,100700.77
2022-09-20T06:09:05.037Z,100705.13
2022-09-20T06:10:07.984Z,100700.77
2022-09-20T06:11:10.091Z,100700.77
2022-09-20T06:12:11.906Z,100712.97
2022-09-20T06:13:13.850Z,100707.76
2022-09-20T06:14:15.793Z,100712.98
2022-09-20T06:15:17.625Z,100706.05
2022-09-20T06:16:20.159Z,100712.98
2022-09-20T06:17:21.950Z,100704.30
2022-09-20T06:18:23.793Z,100709.52
2022-09-20T06:19:25.657Z,100711.27
2022-09-20T06:20:29.286Z,100712.99
2022-09-20T06:21:31.100Z,100713.03
2022-09-20T06:22:32.904Z,100712.17
2022-09-20T06:23:34.750Z,100717.39
2022-09-20T06:24:36.702Z,100714.79
2022-09-20T06:25:38.535Z,100718.30
2022-09-20T06:26:40.460Z,100719.16
2022-09-20T06:27:42.258Z,100715.69
2022-09-20T06:28:44.109Z,100715.69
2022-09-20T06:29:45.915Z,100716.55
2022-09-20T06:30:47.973Z,100716.55
2022-09-20T06:31:49.740Z,100725.28
2022-09-20T06:32:51.536Z,100723.52
2022-09-20T06:33:53.387Z,100717.44
2022-09-20T06:34:55.260Z,100726.13
2022-09-20T06:35:59.172Z,100723.52
2022-09-20T06:37:01.679Z,100727.88
2022-09-20T06:38:03.716Z,100720.90
2022-09-20T06:39:05.586Z,100720.90
2022-09-20T06:40:08.046Z,100719.17
2022-09-20T06:41:09.981Z,100716.56
2022-09-20T06:42:11.875Z,100726.12
2022-09-20T06:43:13.674Z,100722.64
2022-09-20T06:44:15.531Z,100722.64
2022-09-20T06:45:17.327Z,100722.63
2022-09-20T06:46:19.494Z,100720.02
2022-09-20T06:47:21.254Z,100722.63
2022-09-20T06:48:23.090Z,100720.90
2022-09-20T06:49:24.929Z,100720.90
2022-09-20T06:50:27.164Z,100715.67
2022-09-20T06:51:28.947Z,100722.61
2022-09-20T06:52:30.655Z,100713.04
2022-09-20T06:53:32.444Z,100714.76
2022-09-20T06:54:34.167Z,100714.75
2022-09-20T06:55:35.989Z,100718.26
2022-09-20T06:56:37.983Z,100719.11
2022-09-20T06:57:39.776Z,100719.99
2022-09-20T06:58:41.576Z,100717.38
2022-09-20T06:59:43.415Z,100707.78
2022-09-20T07:00:45.412Z,100713.00
2022-09-20T07:01:47.290Z,100713.00
2022-09-20T07:02:49.058Z,100713.86
2022-09-20T07:03:50.853Z,100718.22
2022-09-20T07:04:52.715Z,100711.23
2022-09-20T07:05:54.560Z,100712.97
2022-09-20T07:06:56.458Z,100723.45
2022-09-20T07:07:58.256Z,100716.47
2022-09-20T07:09:00.264Z,100712.98
2022-09-20T07:10:02.197Z,100717.34
2022-09-20T07:11:04.028Z,100712.09
2022-09-20T07:12:05.826Z,100714.70
2022-09-20T07:13:07.619Z,100717.31
2022-09-20T07:14:09.432Z,100715.56
2022-09-20T07:15:11.272Z,100719.06
2022-09-20T07:16:13.794Z,100712.92
2022-09-20T07:17:15.582Z,100710.30
2022-09-20T07:18:17.372Z,100704.19
2022-09-20T07:19:19.297Z,100705.04
2022-09-20T07:20:21.691Z,100696.33
2022-09-20T07:21:23.724Z,100700.69
2022-09-20T07:22:25.623Z,100696.32
2022-09-20T07:23:27.530Z,100698.94
2022-09-20T07:24:29.324Z,100689.34
2022-09-20T07:25:31.159Z,100692.84
2022-09-20T07:26:33.082Z,100690.22
2022-09-20T07:27:34.859Z,100691.07
2022-09-20T07:28:36.577Z,100692.81
2022-09-20T07:29:38.366Z,100693.66
2022-09-20T07:30:40.379Z,100691.04
2022-09-20T07:31:42.350Z,100685.80
2022-09-20T07:32:44.523Z,100697.14
2022-09-20T07:33:46.278Z,100680.55
2022-09-20T07:34:48.071Z,100677.05
2022-09-20T07:35:49.800Z,100680.52
2022-09-20T07:36:52.127Z,100673.56
2022-09-20T07:37:54.041Z,100681.41
2022-09-20T07:38:55.916Z,100677.87
2022-09-20T07:39:57.766Z,100677.89
2022-09-20T07:40:59.756Z,100677.86
2022-09-20T07:42:01.495Z,100674.33
2022-09-20T07:43:03.279Z,100684.78
2022-09-20T07:44:05.325Z,100676.05
2022-09-20T07:45:07.175Z,100686.49
2022-09-20T07:46:09.496Z,100677.76
2022-09-20T07:47:11.323Z,100682.11
2022-09-20T07:48:13.127Z,100679.48
2022-09-20T07:49:14.927Z,100684.71
2022-09-20T07:50:17.744Z,100683.80
2022-09-20T07:51:19.617Z,100681.16
2022-09-20T07:52:21.555Z,100685.53
2022-09-20T07:53:23.353Z,100681.13
2022-09-20T07:54:25.304Z,100678.49
2022-09-20T07:55:27.100Z,100676.75
2022-09-20T07:56:29.022Z,100675.83
2022-09-20T07:57:30.739Z,100678.48
2022-09-20T07:58:32.517Z,100671.47
2022-09-20T07:59:34.218Z,100674.03
2022-09-20T08:00:36.128Z,100671.41
2022-09-20T08:01:37.961Z,100673.14
2022-09-20T08:02:39.840Z,100674.84
2022-09-20T08:03:41.676Z,100676.58
2022-09-20T08:04:43.809Z,100677.42
2022-09-20T08:05:45.589Z,100686.97
2022-09-20T08:06:47.806Z,100680.86
2022-09-20T08:07:49.647Z,100676.47
2022-09-20T08:08:51.337Z,100672.94
2022-09-20T08:09:53.153Z,100675.53
2022-09-20T08:10:55.059Z,100672.88
2022-09-20T08:11:57.032Z,100663.23
2022-09-20T08:14:07.045Z,100670.18
2022-09-20T08:15:09.776Z,100667.55
2022-09-20T08:16:09.954Z,100668.42
2022-09-20T08:17:11.855Z,100661.39
2022-09-20T08:18:13.586Z,100661.36
2022-09-20T08:19:15.396Z,100665.71
2022-09-20T08:20:17.492Z,100666.55
2022-09-20T08:21:19.289Z,100669.14
2022-09-20T08:22:21.238Z,100668.25
2022-09-20T08:23:24.148Z,100662.13
2022-09-20T08:24:26.035Z,100666.45
2022-09-20T08:25:27.822Z,100669.95
2022-09-20T08:26:30.009Z,100664.69
2022-09-20T08:27:31.835Z,100662.88
2022-09-20T08:28:33.672Z,100666.34
2022-09-20T08:29:35.447Z,100658.45
2022-09-20T08:30:37.356Z,100663.69
2022-09-20T08:31:39.202Z,100665.44
2022-09-20T08:32:40.978Z,100667.20
2022-09-20T08:33:42.760Z,100659.31
2022-09-20T08:34:49.352Z,100665.41
2022-09-20T08:35:48.190Z,100654.91
2022-09-20T08:36:50.146Z,100654.01
2022-09-20T08:37:52.015Z,100654.84
2022-09-20T08:39:58.309Z,100647.83
2022-09-20T08:41:00.812Z,100653.09
2022-09-20T08:42:02.913Z,100642.58
2022-09-20T08:43:05.523Z,100646.03
2022-09-20T08:44:07.574Z,100639.00
2022-09-20T08:45:09.381Z,100638.13
2022-09-20T08:46:12.946Z,100636.34
2022-09-20T08:47:14.714Z,100635.46
2022-09-20T08:48:16.593Z,100635.44
2022-09-20T08:49:18.382Z,100640.67
2022-09-20T08:50:20.782Z,100632.77
2022-09-20T08:51:23.011Z,100639.75
2022-09-20T08:52:25.663Z,100633.63
2022-09-20T08:53:28.553Z,100636.20
2022-09-20T08:54:32.712Z,100634.44
2022-09-20T08:55:37.775Z,100637.88
2022-09-20T08:56:38.578Z,100632.61
2022-09-20T08:57:40.623Z,100637.83
2022-09-20T08:58:42.476Z,100636.95
2022-09-20T08:59:44.285Z,100635.16
2022-09-20T09:00:47.075Z,100629.03
2022-09-20T09:01:49.023Z,100635.12
2022-09-20T09:02:51.570Z,100637.72
2022-09-20T09:03:53.450Z,100628.97
2022-09-20T09:04:55.784Z,100631.58
2022-09-20T09:05:58.100Z,100630.70
2022-09-20T09:07:00.647Z,100628.05
2022-09-20T09:08:04.693Z,100629.77
2022-09-20T09:09:06.903Z,100626.20
2022-09-20T09:10:09.094Z,100626.19
2022-09-20T09:11:11.390Z,100627.08
2022-09-20T09:12:13.822Z,100631.39
2022-09-20T09:13:16.517Z,100629.63
2022-09-20T09:14:18.326Z,100618.21
2022-09-20T09:15:20.174Z,100632.23
2022-09-20T09:16:23.269Z,100624.33
2022-09-20T09:17:28.819Z,100624.33
2022-09-20T09:18:31.660Z,100631.26
2022-09-20T09:19:34.536Z,100625.98
2022-09-20T09:20:38.865Z,100624.21
2022-09-20T09:21:41.069Z,100625.05
2022-09-20T09:22:42.886Z,100620.66
2022-09-20T09:23:44.704Z,100618.03
2022-09-20T09:24:46.558Z,100620.63
2022-09-20T09:25:48.384Z,100624.95
2022-09-20T09:26:50.289Z,100625.81
2022-09-20T09:27:52.119Z,100621.39
2022-09-20T09:28:53.924Z,100618.73
2022-09-20T09:29:56.271Z,100618.71
2022-09-20T09:30:58.535Z,100616.06
2022-09-20T09:32:00.674Z,100623.06
2022-09-20T09:33:02.977Z,100623.00
2022-09-20T09:34:04.854Z,100620.37
2022-09-20T09:35:07.389Z,100618.58
2022-09-20T09:36:11.438Z,100619.47
2022-09-20T09:37:13.854Z,100617.72
2022-09-20T09:38:16.661Z,100620.33
2022-09-20T09:39:18.905Z,100616.81
2022-09-20T09:40:21.416Z,100615.93
2022-09-20T09:41:23.248Z,100611.53
2022-09-20T09:42:26.482Z,100612.40
2022-09-20T09:43:29.312Z,100617.66
2022-09-20T09:44:31.879Z,100614.14
2022-09-20T09:45:34.571Z,100611.49
2022-09-20T09:46:37.247Z,100616.72
2022-09-20T09:47:39.116Z,100605.30
2022-09-20T09:48:41.586Z,100609.64
2022-09-20T09:49:43.597Z,100620.13
2022-09-20T09:50:45.538Z,100619.27
2022-09-20T09:51:47.366Z,100614.87
2022-09-20T09:52:49.155Z,100615.70
2022-09-20T09:53:51.141Z,100610.44
2022-09-20T09:54:52.966Z,100612.19
2022-09-20T09:55:54.813Z,100613.02
2022-09-20T09:56:56.862Z,100607.77
2022-09-20T09:57:58.666Z,100608.62
2022-09-20T09:59:00.464Z,100606.82
2022-09-20T10:00:10.251Z,100601.56
2022-09-20T10:01:06.093Z,100609.42
2022-09-20T10:02:08.052Z,100608.53
2022-09-20T10:03:10.138Z,100610.28
2022-09-20T10:04:11.943Z,100608.51
2022-09-20T10:05:13.754Z,100605.88
2022-09-20T10:06:15.906Z,100606.73
2022-09-20T10:07:17.730Z,100596.22
2022-09-20T10:08:19.525Z,100597.97
2022-09-20T10:09:21.334Z,100597.94
2022-09-20T10:10:23.743Z,100595.31
2022-09-20T10:11:25.576Z,100598.80
2022-09-20T10:12:27.513Z,100598.80
2022-09-20T10:13:29.341Z,100595.28
2022-09-20T10:14:31.306Z,100599.66
2022-09-20T10:15:33.077Z,100593.52
2022-09-20T10:16:35.097Z,100596.14
2022-09-20T10:17:37.052Z,100594.42
2022-09-20T10:18:38.839Z,100586.55
2022-09-20T10:19:40.693Z,100593.54
2022-09-20T10:20:42.712Z,100589.17
2022-09-20T10:21:44.833Z,100586.55
2022-09-20T10:23:00.300Z,100590.05
2022-09-20T10:24:06.219Z,100583.95
2022-09-20T10:24:54.411Z,100584.80
2022-09-20T10:25:56.696Z,100583.02
2022-09-20T10:26:59.260Z,100586.58
2022-09-20T10:28:01.165Z,100579.55
2022-09-20T10:29:02.960Z,100584.77
2022-09-20T10:30:05.525Z,100577.73
2022-09-20T10:31:07.789Z,100578.59
2022-09-20T10:32:12.307Z,100584.69
2022-09-20T10:33:13.482Z,100582.02
2022-09-20T10:34:15.356Z,100586.42
2022-09-20T10:35:17.176Z,100582.02
2022-09-20T10:36:20.259Z,100584.62
2022-09-20T10:37:22.645Z,100579.37
2022-09-20T10:38:24.489Z,100579.37
2022-09-20T10:39:26.400Z,100583.73
2022-09-20T10:40:29.383Z,100578.48
2022-09-20T10:41:31.798Z,100574.97
2022-09-20T10:42:33.692Z,100577.59
2022-09-20T10:43:36.184Z,100574.94
2022-09-20T10:44:38.008Z,100574.05
2022-09-20T10:46:44.392Z,100577.54
2022-09-20T10:47:46.252Z,100573.98
2022-09-20T10:48:48.803Z,100577.54
2022-09-20T10:49:51.594Z,100573.14
2022-09-20T10:50:53.872Z,100571.36
2022-09-20T10:51:55.948Z,100567.84
2022-09-20T10:52:58.327Z,100578.33
2022-09-20T10:54:00.863Z,100570.41
2022-09-20T10:55:02.971Z,100574.79
2022-09-20T10:56:04.888Z,100563.36
2022-09-20T10:57:06.820Z,100549.32
2022-09-20T10:58:09.292Z,100557.18
2022-09-20T10:59:11.759Z,100549.27
2022-09-20T11:00:14.224Z,100550.97
2022-09-20T11:01:16.113Z,100549.16
2022-09-20T11:02:19.963Z,100557.02
2022-09-20T11:03:22.461Z,100549.98
2022-09-20T11:04:24.269Z,100549.95
2022-09-20T11:05:26.086Z,100554.33
2022-09-20T11:06:28.452Z,100546.41
2022-09-20T11:07:30.283Z,100550.78
2022-09-20T11:08:32.351Z,100544.60
2022-09-20T11:09:34.194Z,100546.31
2022-09-20T11:10:36.098Z,100540.13
2022-09-20T11:11:38.072Z,100549.77
2022-09-20T11:12:39.905Z,100542.66
2022-09-20T11:13:41.748Z,100546.15
2022-09-20T11:14:43.681Z,100542.63
2022-09-20T11:15:45.569Z,100536.45
2022-09-20T11:16:47.763Z,100542.56
2022-09-20T11:17:49.867Z,100538.13
2022-09-20T11:18:52.201Z,100544.27
2022-09-20T11:19:54.019Z,100541.61
2022-09-20T11:20:55.909Z,100539.84
2022-09-20T11:21:57.712Z,100543.31
2022-09-20T11:22:59.513Z,100539.77
2022-09-20T11:24:01.366Z,100527.53
2022-09-20T11:25:03.160Z,100535.42
2022-09-20T11:26:05.267Z,100546.77
2022-09-20T11:27:07.073Z,100532.77
2022-09-20T11:28:08.865Z,100533.62
2022-09-20T11:29:10.690Z,100534.47
2022-09-20T11:30:12.772Z,100530.95
2022-09-20T11:31:14.612Z,100531.77
2022-09-20T11:32:16.518Z,100529.14
2022-09-20T11:33:18.378Z,100529.11
2022-09-20T11:34:20.230Z,100536.11
2022-09-20T11:35:22.029Z,100535.16
2022-09-20T11:36:24.347Z,100535.16
2022-09-20T11:37:26.144Z,100533.38
2022-09-20T11:38:27.952Z,100537.75
2022-09-20T11:39:29.780Z,100534.16
2022-09-20T11:40:31.718Z,100534.16
2022-09-20T11:41:33.498Z,100535.05
2022-09-20T11:42:35.292Z,100532.37
2022-09-20T11:43:37.092Z,100533.23
2022-09-20T11:44:38.911Z,100538.53
2022-09-20T11:45:40.775Z,100533.27
2022-09-20T11:46:42.639Z,100537.64
2022-09-20T11:47:54.585Z,100535.87
2022-09-20T11:48:48.065Z,100536.75
2022-09-20T11:49:49.903Z,100539.39
2022-09-20T11:50:51.813Z,100542.84